Time;durP1;ratioP1;P1;durP2;ratioP2;P2;SDS_P1;SDS_P2;PMS_P1;PMS_P2;Temp;Humidity;BMP_temperature;BMP_pressure;BME280_temperature;BME280_humidity;BME280_pressure;Samples;Min_cycle;Max_cycle;Signal;HPM_P1;HPM_P2
2023/08/27 00:02:04;;;;;;;2.28;1.55;;;;;;;24.11;100.00;99230.75;5028924;28;20033;-90
2023/08/27 00:04:29;;;;;;;2.85;2.35;;;;;;;24.05;100.00;99244.28;5014443;28;20497;-90
2023/08/27 00:06:55;;;;;;;4.90;2.83;;;;;;;23.98;100.00;99238.53;5020851;28;20036;-90
2023/08/27 00:09:20;;;;;;;2.88;2.45;;;;;;;23.96;100.00;99249.63;5033906;28;20029;-90
2023/08/27 00:11:46;;;;;;;5.78;1.80;;;;;;;23.90;100.00;99243.34;5043385;28;20037;-90
2023/08/27 00:14:12;;;;;;;2.20;2.05;;;;;;;23.85;100.00;99239.31;5042984;28;20032;-91
2023/08/27 00:16:37;;;;;;;2.33;1.98;;;;;;;23.83;100.00;99233.44;5034619;28;20080;-91
2023/08/27 00:19:03;;;;;;;1.75;1.58;;;;;;;23.84;100.00;99229.28;5031188;28;20387;-91
2023/08/27 00:21:29;;;;;;;2.30;1.50;;;;;;;23.84;100.00;99234.19;5016265;28;20029;-90
2023/08/27 00:23:54;;;;;;;2.25;1.67;;;;;;;23.89;100.00;99231.25;5027562;28;20501;-90
2023/08/27 00:26:20;;;;;;;2.03;1.70;;;;;;;23.87;100.00;99228.19;5046120;28;20496;-90
2023/08/27 00:28:46;;;;;;;2.25;1.85;;;;;;;23.91;100.00;99227.84;5014658;28;20042;-90
2023/08/27 00:31:12;;;;;;;1.30;1.20;;;;;;;23.92;100.00;99241.47;5007388;28;20451;-90
2023/08/27 00:33:37;;;;;;;1.02;1.00;;;;;;;23.80;100.00;99245.84;5027666;28;20041;-90
2023/08/27 00:36:03;;;;;;;0.52;0.52;;;;;;;23.69;100.00;99246.88;5024199;28;20424;-90
2023/08/27 00:38:29;;;;;;;0.95;0.95;;;;;;;23.65;100.00;99245.66;5030367;28;20039;-90
2023/08/27 00:40:55;;;;;;;21.25;2.08;;;;;;;23.60;100.00;99263.53;5029271;28;20021;-91
2023/08/27 00:43:20;;;;;;;2.15;1.88;;;;;;;23.60;100.00;99263.53;5012516;28;20021;-89
2023/08/27 00:45:46;;;;;;;2.47;1.70;;;;;;;23.53;100.00;99264.97;5041262;28;20183;-89
2023/08/27 00:48:12;;;;;;;3.47;2.10;;;;;;;23.53;100.00;99281.94;5029527;28;20029;-90
2023/08/27 00:50:39;;;;;;;1.88;1.38;;;;;;;23.45;100.00;99277.47;5006219;28;20099;-91
2023/08/27 00:53:05;;;;;;;1.55;1.45;;;;;;;23.38;100.00;99272.41;5024484;28;20115;-90
2023/08/27 00:55:31;;;;;;;2.72;2.10;;;;;;;23.35;100.00;99273.50;5011167;28;20037;-89
2023/08/27 00:57:57;;;;;;;1.20;1.10;;;;;;;23.33;100.00;99271.25;5024063;28;20033;-90
2023/08/27 01:03:12;;;;;;;1.45;1.35;;;;;;;23.16;100.00;99253.81;5354706;22;20045;-93
2023/08/27 01:05:38;;;;;;;1.73;1.20;;;;;;;23.03;100.00;99260.22;4970245;28;20672;-92
2023/08/27 01:08:26;;;;;;;2.65;1.15;;;;;;;22.98;100.00;99258.25;4989132;28;20399;-92
2023/08/27 01:11:11;;;;;;;1.52;1.10;;;;;;;22.93;100.00;99267.56;4991812;28;20566;-93
2023/08/27 01:14:04;;;;;;;0.30;0.30;;;;;;;22.90;100.00;99267.91;5008328;28;20527;-92
2023/08/27 01:16:33;;;;;;;1.13;1.02;;;;;;;22.75;100.00;99248.63;4991572;28;20041;-95
2023/08/27 01:19:00;;;;;;;0.57;0.57;;;;;;;22.70;100.00;99264.38;4989765;28;20482;-89
2023/08/27 01:21:27;;;;;;;0.30;0.30;;;;;;;22.66;100.00;99260.31;4973927;28;20030;-93
2023/08/27 01:23:52;;;;;;;0.43;0.43;;;;;;;22.58;100.00;99267.88;4990793;28;20034;-92
2023/08/27 01:26:34;;;;;;;1.17;1.10;;;;;;;22.64;100.00;99285.53;4992868;28;20045;-93
2023/08/27 01:29:25;;;;;;;0.35;0.35;;;;;;;22.58;100.00;99287.69;5028703;28;20049;-93
2023/08/27 01:32:12;;;;;;;1.23;1.05;;;;;;;22.45;100.00;99273.50;5010476;28;20041;-94
2023/08/27 01:34:39;;;;;;;0.20;0.20;;;;;;;22.43;100.00;99273.28;5012300;28;20554;-95
2023/08/27 01:37:05;;;;;;;0.40;0.40;;;;;;;22.37;100.00;99272.59;4994075;28;20026;-92
2023/08/27 01:39:31;;;;;;;0.73;0.55;;;;;;;22.33;100.00;99276.50;4992740;28;20171;-96
2023/08/27 01:41:57;;;;;;;0.47;0.47;;;;;;;22.30;100.00;99269.09;4991329;28;20129;-93
2023/08/27 01:44:23;;;;;;;0.32;0.28;;;;;;;22.23;100.00;99264.06;4991904;28;20041;-93
2023/08/27 01:46:48;;;;;;;0.40;0.40;;;;;;;22.18;100.00;99267.72;4990547;28;20034;-94
2023/08/27 01:49:14;;;;;;;0.25;0.22;;;;;;;22.23;100.00;99274.59;4993570;28;20034;-95
2023/08/27 01:51:39;;;;;;;0.38;0.38;;;;;;;22.20;100.00;99276.41;5011211;28;20034;-93
2023/08/27 01:54:06;;;;;;;0.20;0.20;;;;;;;22.18;100.00;99272.63;4971697;28;20045;-94
2023/08/27 01:56:32;;;;;;;0.20;0.20;;;;;;;22.17;100.00;99268.25;5010992;28;20026;-94
2023/08/27 01:58:58;;;;;;;0.30;0.30;;;;;;;22.13;100.00;99268.56;4975774;28;20030;-94
2023/08/27 02:01:23;;;;;;;1.13;1.10;;;;;;;22.11;100.00;99262.72;4992726;28;20022;-94
2023/08/27 02:03:50;;;;;;;0.32;0.32;;;;;;;22.13;100.00;99271.38;4970290;28;20047;-94
2023/08/27 02:06:16;;;;;;;0.25;0.25;;;;;;;22.17;100.00;99273.91;4958623;28;20048;-94
2023/08/27 02:08:42;;;;;;;0.43;0.38;;;;;;;22.18;100.00;99262.09;4958185;28;20023;-95
2023/08/27 02:11:07;;;;;;;3.30;0.50;;;;;;;22.19;100.00;99263.63;4959230;28;20030;-94
2023/08/27 02:13:33;;;;;;;0.28;0.28;;;;;;;22.09;100.00;99254.00;4974883;28;20022;-95
2023/08/27 02:15:58;;;;;;;0.52;0.52;;;;;;;22.03;100.00;99239.19;4973019;28;20066;-94
2023/08/27 02:18:24;;;;;;;0.03;0.03;;;;;;;22.17;100.00;99263.38;4974077;28;20034;-94
2023/08/27 02:20:49;;;;;;;0.50;0.50;;;;;;;22.10;100.00;99255.53;4973049;28;20400;-93
2023/08/27 02:23:15;;;;;;;0.32;0.32;;;;;;;22.10;100.00;99237.81;4974324;28;20484;-92
2023/08/27 02:25:42;;;;;;;0.22;0.22;;;;;;;22.13;100.00;99262.91;4975173;28;20205;-95
2023/08/27 02:28:08;;;;;;;0.65;0.50;;;;;;;21.99;100.00;99257.75;4970910;28;20075;-93
2023/08/27 02:30:33;;;;;;;0.10;0.10;;;;;;;22.06;100.00;99266.38;4990418;28;20173;-93
2023/08/27 02:32:59;;;;;;;0.20;0.20;;;;;;;22.12;100.00;99281.16;4956487;28;20077;-93
2023/08/27 02:35:24;;;;;;;0.10;0.10;;;;;;;22.07;100.00;99272.78;4958331;28;20053;-92
2023/08/27 02:37:50;;;;;;;0.13;0.10;;;;;;;22.06;100.00;99277.66;4974724;28;20545;-96
2023/08/27 02:40:17;;;;;;;0.15;0.15;;;;;;;22.04;100.00;99285.16;4952210;28;20046;-93
2023/08/27 02:42:44;;;;;;;0.00;0.00;;;;;;;22.05;100.00;99276.13;4970521;28;20492;-94
2023/08/27 02:45:10;;;;;;;0.00;0.00;;;;;;;21.96;100.00;99268.03;4956151;28;20045;-94
2023/08/27 02:47:35;;;;;;;0.35;0.30;;;;;;;21.97;100.00;99268.78;4983091;28;20041;-95
2023/08/27 02:50:01;;;;;;;0.28;0.25;;;;;;;21.85;100.00;99256.84;4974455;28;20049;-93
2023/08/27 02:52:26;;;;;;;0.15;0.15;;;;;;;21.94;100.00;99270.63;4975412;28;20030;-93
2023/08/27 02:54:52;;;;;;;0.10;0.10;;;;;;;21.91;100.00;99277.31;4974121;28;20034;-95
2023/08/27 02:57:17;;;;;;;0.25;0.25;;;;;;;21.86;100.00;99272.50;4989862;28;20034;-93
2023/08/27 02:59:43;;;;;;;0.20;0.20;;;;;;;21.80;100.00;99266.94;4969308;28;20076;-94
2023/08/27 03:02:09;;;;;;;0.43;0.28;;;;;;;21.78;100.00;99265.94;4972815;28;20034;-94
2023/08/27 03:04:36;;;;;;;0.85;0.20;;;;;;;21.77;100.00;99261.59;4965542;28;20054;-92
2023/08/27 03:07:01;;;;;;;0.30;0.15;;;;;;;;;;4974336;28;20474;-93
2023/08/27 03:09:27;;;;;;;0.20;0.17;;;;;;;21.80;100.00;99264.09;5006524;28;20192;-95
2023/08/27 03:11:52;;;;;;;0.20;0.20;;;;;;;21.78;100.00;99280.06;4957394;28;20022;-93
2023/08/27 03:14:18;;;;;;;0.30;0.20;;;;;;;21.74;100.00;99290.88;4973618;28;20038;-95
2023/08/27 03:16:44;;;;;;;0.15;0.15;;;;;;;21.71;100.00;99297.59;4957977;28;20042;-94
2023/08/27 03:19:09;;;;;;;0.82;0.80;;;;;;;21.62;100.00;99278.19;4954908;28;20499;-95
2023/08/27 03:21:35;;;;;;;0.17;0.17;;;;;;;21.65;100.00;99285.59;4974525;28;20088;-95
2023/08/27 03:24:01;;;;;;;0.20;0.20;;;;;;;21.65;100.00;99265.84;4958634;28;20065;-93
2023/08/27 03:26:26;;;;;;;0.25;0.25;;;;;;;21.63;100.00;99282.56;4973782;28;20042;-94
2023/08/27 03:28:52;;;;;;;0.43;0.43;;;;;;;21.53;100.00;99270.09;4973468;28;20034;-93
2023/08/27 03:31:18;;;;;;;0.45;0.25;;;;;;;21.58;100.00;99286.97;4973534;28;20042;-94
2023/08/27 03:33:43;;;;;;;0.10;0.10;;;;;;;21.50;100.00;99283.22;4957266;28;20036;-94
2023/08/27 03:36:09;;;;;;;1.65;0.75;;;;;;;21.47;100.00;99289.16;4968922;28;20089;-95
2023/08/27 03:38:35;;;;;;;0.20;0.20;;;;;;;21.36;100.00;99285.16;4973101;28;20484;-94
2023/08/27 03:41:00;;;;;;;5.68;0.63;;;;;;;21.38;100.00;99274.13;4956114;28;20467;-93
2023/08/27 03:43:27;;;;;;;0.20;0.20;;;;;;;21.32;100.00;99287.50;4968591;28;20034;-93
2023/08/27 03:45:52;;;;;;;0.30;0.30;;;;;;;21.34;100.00;99287.75;4965640;28;20030;-95
2023/08/27 03:48:18;;;;;;;0.10;0.10;;;;;;;21.25;100.00;99274.00;4955230;28;20125;-92
2023/08/27 03:50:45;;;;;;;0.52;0.50;;;;;;;21.30;100.00;99278.06;4974113;28;20392;-92
2023/08/27 03:53:11;;;;;;;0.20;0.17;;;;;;;21.21;100.00;99267.88;4972533;28;20720;-94
2023/08/27 03:55:39;;;;;;;0.43;0.43;;;;;;;21.21;100.00;99262.25;4957393;28;20041;-93
2023/08/27 03:58:05;;;;;;;0.45;0.43;;;;;;;21.19;100.00;99264.81;4948798;28;20141;-95
2023/08/27 04:00:32;;;;;;;1.60;1.02;;;;;;;21.20;100.00;99272.00;4956356;28;20041;-94
2023/08/27 04:02:58;;;;;;;0.00;0.00;;;;;;;21.07;100.00;99257.72;4987409;28;20034;-93
2023/08/27 04:05:23;;;;;;;0.20;0.03;;;;;;;21.00;100.00;99258.31;4957401;28;21414;-93
2023/08/27 04:07:49;;;;;;;0.22;0.22;;;;;;;21.07;100.00;99271.09;4971576;28;20088;-92
2023/08/27 04:10:14;;;;;;;0.35;0.35;;;;;;;20.99;100.00;99256.06;4987729;28;20036;-93
2023/08/27 04:12:40;;;;;;;0.10;0.10;;;;;;;21.03;100.00;99273.44;4957479;28;20129;-96
2023/08/27 04:15:06;;;;;;;0.45;0.32;;;;;;;21.00;100.00;99275.25;4972081;28;20065;-95
2023/08/27 04:17:31;;;;;;;0.40;0.40;;;;;;;21.00;100.00;99278.06;4954973;28;20031;-93
2023/08/27 04:19:57;;;;;;;0.73;0.38;;;;;;;20.97;100.00;99267.84;4956569;28;20038;-94
2023/08/27 04:22:23;;;;;;;0.98;0.93;;;;;;;20.92;100.00;99260.19;4973330;28;20455;-93
2023/08/27 04:24:48;;;;;;;0.65;0.65;;;;;;;20.89;100.00;99262.03;4958182;28;20072;-94
2023/08/27 04:27:14;;;;;;;4.28;0.47;;;;;;;20.94;100.00;99260.44;4955793;28;20085;-95
2023/08/27 04:29:39;;;;;;;0.20;0.20;;;;;;;20.95;100.00;99256.31;4972587;28;20125;-94
2023/08/27 04:32:07;;;;;;;1.63;0.60;;;;;;;20.99;100.00;99262.44;4952666;28;20042;-94
2023/08/27 04:34:32;;;;;;;0.47;0.47;;;;;;;20.91;100.00;99267.88;4972255;28;20078;-92
2023/08/27 04:36:58;;;;;;;0.55;0.38;;;;;;;20.91;100.00;99278.41;4970495;28;20027;-94
2023/08/27 04:39:26;;;;;;;0.70;0.70;;;;;;;20.97;100.00;99275.53;4971972;28;20093;-92
2023/08/27 04:41:52;;;;;;;2.35;0.28;;;;;;;21.03;100.00;99291.09;4953360;28;20046;-93
2023/08/27 04:44:18;;;;;;;0.68;0.68;;;;;;;21.00;100.00;99292.16;4954623;28;20035;-92
2023/08/27 04:46:43;;;;;;;0.45;0.45;;;;;;;20.98;100.00;99277.06;4951577;28;20034;-93
2023/08/27 04:49:09;;;;;;;0.35;0.35;;;;;;;20.94;100.00;99274.53;4954345;28;20068;-92
2023/08/27 04:51:35;;;;;;;0.13;0.13;;;;;;;20.96;100.00;99274.75;4972720;28;20033;-93
2023/08/27 04:54:04;;;;;;;0.15;0.15;;;;;;;20.99;100.00;99290.63;4973219;28;20034;-93
2023/08/27 04:56:30;;;;;;;2.22;0.90;;;;;;;20.97;100.00;99276.31;4972326;28;20080;-95
2023/08/27 04:58:55;;;;;;;0.45;0.45;;;;;;;21.00;100.00;99299.84;4944681;28;20039;-93
2023/08/27 05:01:21;;;;;;;0.45;0.45;;;;;;;20.98;100.00;99286.28;4967511;28;20070;-93
2023/08/27 05:03:47;;;;;;;0.50;0.50;;;;;;;21.09;100.00;99294.63;4956416;28;20039;-91
2023/08/27 05:06:13;;;;;;;0.40;0.40;;;;;;;21.11;100.00;99288.47;4955685;28;20038;-93
2023/08/27 05:08:39;;;;;;;1.98;0.95;;;;;;;21.22;100.00;99291.22;4955109;28;20035;-92
2023/08/27 05:11:05;;;;;;;0.30;0.30;;;;;;;21.31;100.00;99288.06;4946488;28;20564;-92
2023/08/27 05:13:30;;;;;;;0.13;0.13;;;;;;;21.37;100.00;99292.34;4970600;28;20065;-93
2023/08/27 05:15:56;;;;;;;0.40;0.40;;;;;;;21.70;100.00;99291.19;4982488;28;20057;-94
2023/08/27 05:18:22;;;;;;;0.10;0.10;;;;;;;21.86;100.00;99293.03;4954851;28;20124;-93
2023/08/27 05:20:47;;;;;;;0.70;0.70;;;;;;;21.85;100.00;99282.28;4954129;28;20137;-93
2023/08/27 05:23:13;;;;;;;1.08;1.00;;;;;;;21.96;100.00;99279.31;4976073;28;20081;-93
2023/08/27 05:25:39;;;;;;;0.17;0.17;;;;;;;21.97;100.00;99269.56;4958183;28;20035;-92
2023/08/27 05:28:04;;;;;;;0.73;0.73;;;;;;;22.12;100.00;99278.34;4976844;28;20034;-93
2023/08/27 05:30:30;;;;;;;0.22;0.22;;;;;;;22.18;100.00;99267.72;4959686;28;20054;-92
2023/08/27 05:32:58;;;;;;;0.32;0.20;;;;;;;22.30;100.00;99268.31;4957758;28;20026;-93
2023/08/27 05:35:24;;;;;;;0.10;0.10;;;;;;;22.38;100.00;99252.28;4957898;28;20070;-93
2023/08/27 05:37:50;;;;;;;0.45;0.45;;;;;;;22.56;100.00;99239.41;4959412;28;20023;-93
2023/08/27 05:40:15;;;;;;;0.77;0.55;;;;;;;22.65;100.00;99231.28;4957022;28;20062;-92
2023/08/27 05:42:41;;;;;;;1.20;0.73;;;;;;;22.81;100.00;99223.84;4983604;28;20076;-93
2023/08/27 05:45:07;;;;;;;1.05;0.95;;;;;;;23.02;100.00;99235.28;4976871;28;20084;-93
2023/08/27 05:47:34;;;;;;;5.30;0.90;;;;;;;23.04;100.00;99216.50;4959009;28;20034;-93
2023/08/27 05:49:59;;;;;;;0.38;0.32;;;;;;;23.28;100.00;99240.22;4969922;28;20049;-93
2023/08/27 05:52:26;;;;;;;0.20;0.10;;;;;;;23.40;100.00;99252.84;4957099;28;20062;-94
2023/08/27 05:54:54;;;;;;;1.38;0.52;;;;;;;23.65;100.00;99265.50;4973982;28;20274;-93
2023/08/27 05:57:19;;;;;;;0.68;0.68;;;;;;;23.72;100.00;99262.00;4958586;28;20054;-93
2023/08/27 05:59:45;;;;;;;0.50;0.50;;;;;;;23.88;100.00;99260.09;4983326;28;20035;-93
2023/08/27 06:02:13;;;;;;;0.38;0.35;;;;;;;24.03;100.00;99261.06;4960041;28;20022;-92
2023/08/27 06:04:40;;;;;;;0.20;0.20;;;;;;;24.12;100.00;99252.09;4969931;28;20049;-92
2023/08/27 06:07:07;;;;;;;0.50;0.50;;;;;;;24.34;100.00;99256.53;4968418;28;20078;-92
2023/08/27 06:09:33;;;;;;;1.00;0.68;;;;;;;24.46;96.96;99254.94;4990374;28;20046;-96
2023/08/27 06:11:59;;;;;;;0.25;0.20;;;;;;;24.46;96.94;99259.84;4975261;28;20018;-93
2023/08/27 06:14:24;;;;;;;0.70;0.50;;;;;;;24.61;99.10;99260.75;4972562;28;20080;-92
2023/08/27 06:16:50;;;;;;;0.30;0.30;;;;;;;24.54;98.82;99267.13;4991147;28;20034;-93
2023/08/27 06:19:15;;;;;;;0.30;0.30;;;;;;;24.84;98.13;99265.88;4969543;28;20034;-91
2023/08/27 06:21:41;;;;;;;0.50;0.50;;;;;;;24.90;97.25;99253.09;4973319;28;20031;-92
2023/08/27 06:24:08;;;;;;;0.40;0.40;;;;;;;24.91;95.47;99257.44;4959024;28;20037;-91
2023/08/27 06:26:33;;;;;;;0.55;0.55;;;;;;;25.21;93.46;99256.16;4981232;28;20026;-92
2023/08/27 06:28:59;;;;;;;0.52;0.45;;;;;;;25.41;92.32;99249.66;4973211;28;20525;-92
2023/08/27 06:31:24;;;;;;;0.30;0.30;;;;;;;25.53;89.62;99239.53;4959517;28;20057;-91
2023/08/27 06:33:50;;;;;;;0.30;0.30;;;;;;;25.77;89.49;99236.25;4974947;28;20428;-92
2023/08/27 06:36:15;;;;;;;0.20;0.20;;;;;;;26.05;88.36;99237.47;4981713;28;20023;-91
2023/08/27 06:38:41;;;;;;;0.65;0.65;;;;;;;26.21;87.04;99224.88;4957816;28;20038;-92
2023/08/27 06:41:07;;;;;;;0.38;0.38;;;;;;;26.46;84.57;99228.72;4972506;28;20035;-93
2023/08/27 06:43:33;;;;;;;0.85;0.85;;;;;;;26.58;82.65;99232.69;4956703;28;20040;-92
2023/08/27 06:45:58;;;;;;;0.30;0.30;;;;;;;26.70;82.19;99253.75;4987330;28;20456;-92
2023/08/27 06:48:24;;;;;;;0.55;0.50;;;;;;;26.80;80.07;99236.91;4953078;28;20031;-93
2023/08/27 06:50:50;;;;;;;1.02;0.93;;;;;;;26.78;76.79;99239.53;4955958;28;20062;-92
2023/08/27 06:53:16;;;;;;;0.68;0.40;;;;;;;26.82;79.30;99240.69;4989502;28;20026;-91
2023/08/27 06:55:42;;;;;;;0.63;0.63;;;;;;;26.75;77.24;99235.00;4972466;28;20030;-92
2023/08/27 06:58:07;;;;;;;0.30;0.30;;;;;;;26.98;77.64;99237.84;4984671;28;20120;-93
2023/08/27 07:00:33;;;;;;;0.30;0.30;;;;;;;27.17;77.20;99230.47;4954954;28;20117;-92
2023/08/27 07:02:59;;;;;;;0.32;0.32;;;;;;;27.29;74.90;99237.28;4968479;28;20070;-93
2023/08/27 07:05:25;;;;;;;0.38;0.35;;;;;;;27.39;75.07;99237.41;4987217;28;20496;-92
2023/08/27 07:07:50;;;;;;;0.20;0.20;;;;;;;27.38;75.28;99227.34;4975310;28;20034;-93
2023/08/27 07:10:16;;;;;;;0.70;0.70;;;;;;;27.45;76.60;99242.94;4974051;28;20046;-92
2023/08/27 07:12:41;;;;;;;0.30;0.30;;;;;;;27.45;73.22;99255.06;4971774;28;20031;-93
2023/08/27 07:15:09;;;;;;;0.20;0.20;;;;;;;27.33;74.90;99239.72;4960178;28;20329;-93
2023/08/27 07:17:36;;;;;;;0.32;0.32;;;;;;;27.66;75.23;99249.91;4976266;28;20041;-94
2023/08/27 07:20:07;;;;;;;0.20;0.20;;;;;;;27.89;74.90;99252.69;4944786;28;20031;-93
2023/08/27 07:22:34;;;;;;;0.30;0.30;;;;;;;28.02;74.17;99263.84;4962124;28;20111;-93
2023/08/27 07:25:00;;;;;;;0.45;0.45;;;;;;;28.23;72.03;99246.44;4978596;28;20109;-93
2023/08/27 07:27:26;;;;;;;0.25;0.20;;;;;;;28.47;72.53;99248.59;4972243;28;20041;-95
2023/08/27 07:29:51;;;;;;;0.55;0.43;;;;;;;28.37;70.67;99244.09;4987996;28;20043;-95
2023/08/27 07:32:17;;;;;;;0.93;0.93;;;;;;;28.34;70.67;99240.31;4956115;28;20035;-93
2023/08/27 07:34:43;;;;;;;0.40;0.40;;;;;;;28.50;71.69;99240.97;4954143;28;20121;-93
2023/08/27 07:37:10;;;;;;;0.35;0.35;;;;;;;28.23;71.28;99243.59;4955261;28;20057;-94
2023/08/27 07:39:36;;;;;;;1.38;0.47;;;;;;;28.38;72.92;99228.50;4957718;28;20535;-94
2023/08/27 07:42:02;;;;;;;0.52;0.52;;;;;;;28.68;71.83;99248.25;4966399;28;20498;-94
2023/08/27 07:44:29;;;;;;;0.50;0.50;;;;;;;28.77;70.19;99252.59;4990041;28;20488;-95
2023/08/27 07:46:54;;;;;;;0.32;0.32;;;;;;;28.65;71.18;99240.88;4958494;28;20035;-95
2023/08/27 07:49:20;;;;;;;1.50;0.60;;;;;;;28.94;70.90;99249.81;4953782;28;20072;-95
2023/08/27 07:51:47;;;;;;;0.93;0.60;;;;;;;28.97;67.69;99226.53;4952853;28;20026;-93
2023/08/27 07:54:13;;;;;;;0.43;0.43;;;;;;;28.69;68.29;99232.69;4966763;28;20055;-91
2023/08/27 07:56:38;;;;;;;0.30;0.30;;;;;;;28.16;70.57;99244.41;4983337;28;20477;-90
2023/08/27 07:59:04;;;;;;;0.40;0.40;;;;;;;28.36;71.26;99223.38;4972746;28;20547;-90
2023/08/27 08:01:30;;;;;;;0.63;0.63;;;;;;;28.28;68.92;99206.31;4952391;28;20515;-87
2023/08/27 08:03:56;;;;;;;0.98;0.98;;;;;;;28.48;70.24;99235.09;4973634;28;20446;-91
2023/08/27 08:06:22;;;;;;;0.77;0.77;;;;;;;28.39;71.01;99238.59;4955481;28;20512;-92
2023/08/27 08:08:48;;;;;;;0.38;0.38;;;;;;;27.94;75.86;99236.72;4955694;28;20042;-91
2023/08/27 08:11:13;;;;;;;0.32;0.32;;;;;;;28.03;76.53;99245.38;4969692;28;20126;-94
2023/08/27 08:13:41;;;;;;;0.60;0.60;;;;;;;28.10;75.71;99238.19;4970960;28;20053;-93
2023/08/27 08:16:06;;;;;;;0.43;0.43;;;;;;;28.03;75.65;99241.78;4955397;28;20132;-95
2023/08/27 08:18:33;;;;;;;0.98;0.88;;;;;;;28.06;77.39;99226.38;4958555;28;20046;-94
2023/08/27 08:21:00;;;;;;;0.65;0.65;;;;;;;28.49;76.77;99220.25;4979083;28;20038;-94
2023/08/27 08:23:25;;;;;;;0.80;0.70;;;;;;;28.85;73.41;99222.66;4987343;28;20026;-94
2023/08/27 08:25:51;;;;;;;0.30;0.30;;;;;;;28.97;72.36;99220.06;4973498;28;20041;-94
2023/08/27 08:28:17;;;;;;;1.02;0.88;;;;;;;28.91;72.02;99222.44;4956434;28;20038;-94
2023/08/27 08:30:48;;;;;;;0.40;0.40;;;;;;;28.83;71.88;99205.38;4979667;28;20479;-94
2023/08/27 08:33:17;;;;;;;0.95;0.50;;;;;;;28.47;75.79;99208.66;4969659;28;20042;-93
2023/08/27 08:35:43;;;;;;;0.95;0.90;;;;;;;28.35;77.64;99201.88;4981541;28;20054;-94
2023/08/27 08:38:09;;;;;;;0.38;0.38;;;;;;;28.47;78.93;99188.69;4951404;28;20019;-93
2023/08/27 08:40:39;;;;;;;0.85;0.60;;;;;;;28.47;78.59;99190.81;4970472;28;20378;-93
2023/08/27 08:43:06;;;;;;;4.22;1.25;;;;;;;28.70;79.97;99185.69;4972873;28;20476;-93
2023/08/27 08:45:40;;;;;;;1.35;0.88;;;;;;;29.10;74.88;99199.78;4978347;28;20026;-92
2023/08/27 08:48:14;;;;;;;0.75;0.65;;;;;;;29.40;71.75;99202.34;4973736;28;20098;-93
2023/08/27 08:50:40;;;;;;;0.52;0.52;;;;;;;29.04;74.34;99184.97;4982287;28;20069;-94
2023/08/27 08:53:14;;;;;;;0.35;0.35;;;;;;;29.10;74.16;99205.50;4966998;28;20038;-93
2023/08/27 08:55:47;;;;;;;0.43;0.43;;;;;;;29.31;72.63;99197.31;4995944;28;20057;-93
2023/08/27 08:58:13;;;;;;;1.13;0.95;;;;;;;29.41;70.48;99203.84;4993013;28;20034;-93
2023/08/27 09:01:25;;;;;;;0.77;0.77;;;;;;;29.48;71.47;99193.69;4982179;28;20040;-93
2023/08/27 09:04:12;;;;;;;0.85;0.60;;;;;;;29.50;72.21;99197.47;5012020;28;20101;-94
2023/08/27 09:06:44;;;;;;;0.77;0.77;;;;;;;29.54;71.15;99151.31;5011885;28;20534;-94
2023/08/27 09:09:20;;;;;;;1.00;0.50;;;;;;;29.98;69.60;99177.06;4995723;28;20039;-94
2023/08/27 09:11:52;;;;;;;0.55;0.55;;;;;;;30.46;68.81;99180.94;5013726;28;20099;-95
2023/08/27 09:14:20;;;;;;;0.80;0.80;;;;;;;30.71;66.26;99171.41;4990474;28;20105;-93
2023/08/27 09:16:45;;;;;;;1.52;0.80;;;;;;;30.69;64.75;99177.75;5009884;28;20036;-93
2023/08/27 09:19:11;;;;;;;0.50;0.47;;;;;;;30.78;64.89;99176.22;4967584;28;20113;-94
2023/08/27 09:21:36;;;;;;;0.40;0.40;;;;;;;30.87;64.26;99170.53;4972811;28;20452;-94
2023/08/27 09:24:02;;;;;;;0.50;0.50;;;;;;;31.12;63.82;99172.41;4984402;28;20045;-94
2023/08/27 09:26:28;;;;;;;1.13;1.05;;;;;;;31.12;63.45;99164.56;5005588;28;20026;-94
2023/08/27 09:28:55;;;;;;;0.50;0.50;;;;;;;31.19;62.33;99169.41;4976732;28;20095;-94
2023/08/27 09:31:37;;;;;;;1.40;1.00;;;;;;;31.45;62.79;99173.50;4993587;28;20488;-93
2023/08/27 09:34:03;;;;;;;0.40;0.40;;;;;;;31.58;61.01;99163.72;5002450;28;20065;-93
2023/08/27 09:36:31;;;;;;;0.60;0.60;;;;;;;31.60;60.96;99156.00;4993739;28;20057;-94
2023/08/27 09:38:56;;;;;;;1.67;1.20;;;;;;;31.43;61.06;99159.75;4969039;28;20259;-93
2023/08/27 09:41:22;;;;;;;1.55;0.75;;;;;;;31.25;61.41;99144.09;4992027;28;20209;-94
2023/08/27 09:43:54;;;;;;;0.73;0.73;;;;;;;31.05;62.76;99142.56;4992094;28;20065;-94
2023/08/27 09:46:20;;;;;;;;;;;;;;;31.19;63.46;99152.22;4991735;28;20045;-93
2023/08/27 09:49:07;;;;;;;0.60;0.60;;;;;;;31.32;62.18;99151.00;4991813;28;19917;-95
2023/08/27 09:51:38;;;;;;;0.40;0.40;;;;;;;31.61;61.42;99151.03;4982772;28;20519;-95
2023/08/27 09:54:17;;;;;;;0.43;0.43;;;;;;;31.85;60.28;99147.06;4976198;28;20039;-96
2023/08/27 09:56:48;;;;;;;0.85;0.65;;;;;;;32.14;59.13;99142.03;4976526;28;20030;-93
2023/08/27 09:59:18;;;;;;;0.65;0.65;;;;;;;32.18;57.45;99141.56;4997825;28;20085;-93
2023/08/27 10:01:50;;;;;;;0.30;0.30;;;;;;;32.11;59.29;99134.63;4959517;28;20046;-93
2023/08/27 10:04:17;;;;;;;;;;;;;;;32.46;57.78;99148.53;4975759;28;20153;-94
2023/08/27 10:06:42;;;;;;;1.85;0.98;;;;;;;32.48;58.40;99149.44;4972254;28;19929;-94
2023/08/27 10:09:08;;;;;;;0.70;0.57;;;;;;;32.52;57.00;99143.22;4957578;28;20034;-95
2023/08/27 10:11:34;;;;;;;1.00;0.75;;;;;;;32.59;56.86;99145.91;4991029;28;20476;-94
2023/08/27 10:14:00;;;;;;;0.30;0.30;;;;;;;32.74;53.92;99130.44;4974999;28;20098;-94
2023/08/27 10:16:30;;;;;;;0.77;0.77;;;;;;;32.91;55.20;99144.53;4975878;28;20122;-94
2023/08/27 10:18:59;;;;;;;0.80;0.70;;;;;;;32.83;55.39;99132.50;4976213;28;20510;-93
2023/08/27 10:21:25;;;;;;;0.50;0.50;;;;;;;32.98;55.19;99140.72;4991854;28;20088;-94
2023/08/27 10:23:52;;;;;;;1.17;1.08;;;;;;;33.18;53.35;99130.59;4993283;28;20034;-94
2023/08/27 10:26:18;;;;;;;0.77;0.77;;;;;;;33.19;52.18;99139.97;4973711;28;20078;-94
2023/08/27 10:28:44;;;;;;;0.80;0.80;;;;;;;32.69;53.94;99122.91;4992460;28;20062;-95
2023/08/27 10:31:09;;;;;;;0.60;0.60;;;;;;;32.91;54.80;99130.19;4992061;28;20368;-93
2023/08/27 10:33:35;;;;;;;1.02;0.93;;;;;;;32.86;55.64;99121.91;4971016;28;20054;-95
2023/08/27 10:36:05;;;;;;;0.60;0.60;;;;;;;33.24;54.52;99118.78;4974538;28;20522;-93
2023/08/27 10:38:32;;;;;;;1.35;0.93;;;;;;;33.43;53.06;99114.97;4976467;28;20038;-95
2023/08/27 10:40:58;;;;;;;1.77;0.98;;;;;;;33.47;51.66;99115.22;4956771;28;20081;-94
2023/08/27 10:43:23;;;;;;;1.58;1.20;;;;;;;33.74;51.55;99104.09;4968476;28;20041;-94
2023/08/27 10:45:49;;;;;;;1.10;0.98;;;;;;;33.84;49.35;99101.88;4973294;28;20030;-95
2023/08/27 10:48:18;;;;;;;1.00;0.95;;;;;;;34.01;49.51;99118.75;4993050;28;20085;-94
2023/08/27 10:50:46;;;;;;;0.93;0.73;;;;;;;34.03;47.90;99104.50;4990199;28;20039;-93
2023/08/27 10:53:13;;;;;;;1.05;0.95;;;;;;;33.93;46.47;99108.88;4993418;28;20042;-93
2023/08/27 10:55:40;;;;;;;0.75;0.68;;;;;;;33.89;45.33;99109.34;4956148;28;20662;-92
2023/08/27 10:58:22;;;;;;;0.80;0.80;;;;;;;33.75;43.68;99105.59;4971886;28;20042;-92
2023/08/27 11:01:05;;;;;;;0.88;0.88;;;;;;;33.85;45.88;99111.25;4984992;28;20464;-94
2023/08/27 11:03:51;;;;;;;4.75;1.65;;;;;;;33.79;44.60;99096.47;4970181;28;20447;-93
2023/08/27 11:06:20;;;;;;;5.80;1.25;;;;;;;33.56;45.04;99079.88;4990823;28;20038;-93
2023/08/27 11:08:50;;;;;;;2.38;1.85;;;;;;;33.33;45.50;99083.44;4989687;28;20042;-94
2023/08/27 11:11:15;;;;;;;0.68;0.68;;;;;;;33.47;46.47;99101.59;4968969;28;20047;-92
2023/08/27 11:13:49;;;;;;;2.92;2.15;;;;;;;33.76;45.22;99098.47;4988767;28;20042;-93
2023/08/27 11:16:16;;;;;;;4.93;1.90;;;;;;;33.83;42.95;99074.47;4956563;28;20035;-95
2023/08/27 11:18:47;;;;;;;1.52;1.25;;;;;;;33.87;43.65;99086.22;4988007;28;20026;-94
2023/08/27 11:21:40;;;;;;;2.33;1.20;;;;;;;34.17;43.58;99088.16;4977042;28;20100;-94
2023/08/27 11:24:12;;;;;;;2.50;2.30;;;;;;;34.47;43.83;99079.88;4972012;28;20042;-95
2023/08/27 11:26:41;;;;;;;;;;;;;;;34.64;42.13;99085.25;4977251;28;20037;-95
2023/08/27 11:29:07;;;;;;;1.35;0.98;;;;;;;34.64;43.03;99091.00;4996760;28;19999;-94
2023/08/27 11:31:33;;;;;;;1.23;1.23;;;;;;;34.90;42.28;99078.19;4957521;28;20471;-94
2023/08/27 11:34:00;;;;;;;1.17;1.02;;;;;;;34.56;41.90;99070.34;4981828;28;20117;-95